createdAt,value
2023-04-16T00:04:40.820Z,7.38
2023-04-16T00:09:40.622Z,7.27
2023-04-16T00:14:40.558Z,7.32
2023-04-16T00:19:40.490Z,7.29
2023-04-16T00:24:40.426Z,7.23
2023-04-16T00:29:40.354Z,7.22
2023-04-16T00:34:40.302Z,7.17
2023-04-16T00:39:40.240Z,7.17
2023-04-16T00:44:40.193Z,7.05
2023-04-16T00:49:40.106Z,7.07
2023-04-16T00:54:40.064Z,7.08
2023-04-16T00:59:39.956Z,6.97
2023-04-16T01:04:39.900Z,6.87
2023-04-16T01:09:39.864Z,6.86
2023-04-16T01:14:39.779Z,6.97
2023-04-16T01:19:39.725Z,6.95
2023-04-16T01:24:39.645Z,6.91
2023-04-16T01:29:39.581Z,6.91
2023-04-16T01:34:39.524Z,6.89
2023-04-16T01:39:39.454Z,6.94
2023-04-16T01:44:39.410Z,6.94
2023-04-16T01:49:39.307Z,6.77
2023-04-16T01:54:39.266Z,6.65
2023-04-16T01:59:39.199Z,6.48
2023-04-16T02:04:39.119Z,6.38
2023-04-16T02:09:39.042Z,6.26
2023-04-16T02:14:38.979Z,6.14
2023-04-16T02:19:38.906Z,6.07
2023-04-16T02:24:38.851Z,5.89
2023-04-16T02:29:38.801Z,5.81
2023-04-16T02:34:38.720Z,5.85
2023-04-16T02:39:38.635Z,5.89
2023-04-16T02:44:38.581Z,6.01
2023-04-16T02:49:38.521Z,5.91
2023-04-16T02:54:38.452Z,5.89
2023-04-16T02:59:38.378Z,5.88
2023-04-16T03:04:38.463Z,5.85
2023-04-16T03:09:38.275Z,5.63
2023-04-16T03:14:38.191Z,5.60
2023-04-16T03:19:38.125Z,5.50
2023-04-16T03:24:38.077Z,5.38
2023-04-16T03:29:37.992Z,5.38
2023-04-16T03:34:37.932Z,5.40
2023-04-16T03:39:37.869Z,5.43
2023-04-16T03:44:37.801Z,5.30
2023-04-16T03:49:37.746Z,5.28
2023-04-16T03:54:37.673Z,5.22
2023-04-16T03:59:37.587Z,5.20
2023-04-16T04:04:37.635Z,5.13
2023-04-16T04:09:37.466Z,4.99
2023-04-16T04:14:37.420Z,5.04
2023-04-16T04:19:40.266Z,5.01
2023-04-16T04:24:38.278Z,5.07
2023-04-16T04:29:37.219Z,5.12
2023-04-16T04:34:37.157Z,5.23
2023-04-16T04:39:37.170Z,5.30
2023-04-16T04:44:37.031Z,5.74
2023-04-16T04:49:36.953Z,6.26
2023-04-16T04:54:36.898Z,6.84
2023-04-16T04:59:36.823Z,7.49
2023-04-16T05:04:36.782Z,7.72
2023-04-16T05:09:36.687Z,8.03
2023-04-16T05:14:36.621Z,8.28
2023-04-16T05:19:36.545Z,8.54
2023-04-16T05:24:36.501Z,8.30
2023-04-16T05:29:36.412Z,8.00
2023-04-16T05:34:36.357Z,7.77
2023-04-16T05:39:36.279Z,7.56
2023-04-16T05:44:36.243Z,7.72
2023-04-16T05:49:36.152Z,8.04
2023-04-16T05:54:36.091Z,8.48
2023-04-16T05:59:36.018Z,8.76
2023-04-16T06:04:35.952Z,9.21
2023-04-16T06:09:35.884Z,9.46
2023-04-16T06:14:35.855Z,9.73
2023-04-16T06:19:35.773Z,9.88
2023-04-16T06:24:35.711Z,10.24
2023-04-16T06:29:41.091Z,10.68
2023-04-16T06:34:36.585Z,11.09
2023-04-16T06:39:35.474Z,11.09
2023-04-16T06:44:35.452Z,11.24
2023-04-16T06:49:35.353Z,11.65
2023-04-16T06:54:35.276Z,11.78
2023-04-16T06:59:35.215Z,12.04
2023-04-16T07:04:35.192Z,12.64
2023-04-16T07:09:35.111Z,13.18
2023-04-16T07:14:35.034Z,13.29
2023-04-16T07:19:35.053Z,13.27
2023-04-16T07:24:34.911Z,13.32
2023-04-16T07:29:34.896Z,13.51
2023-04-16T07:34:34.833Z,14.04
2023-04-16T07:39:34.783Z,14.50
2023-04-16T07:44:34.779Z,14.01
2023-04-16T07:49:34.556Z,14.83
2023-04-16T07:54:34.518Z,15.28
2023-04-16T07:59:34.556Z,15.54
2023-04-16T08:04:34.608Z,15.67
2023-04-16T08:09:34.283Z,15.57
2023-04-16T08:14:34.228Z,16.03
2023-04-16T08:19:34.172Z,16.15
2023-04-16T08:24:34.149Z,16.09
2023-04-16T08:29:34.014Z,15.79
2023-04-16T08:34:33.954Z,16.23
2023-04-16T08:39:33.867Z,16.78
2023-04-16T08:44:33.838Z,17.66
2023-04-16T08:49:33.733Z,17.92
2023-04-16T08:54:33.880Z,17.33
2023-04-16T08:59:33.630Z,16.65
2023-04-16T09:04:33.612Z,17.95
2023-04-16T09:09:34.537Z,18.84
2023-04-16T09:14:33.398Z,19.43
2023-04-16T09:19:33.335Z,18.97
2023-04-16T09:24:33.292Z,19.35
2023-04-16T09:29:33.211Z,19.73
2023-04-16T09:34:33.135Z,19.79
2023-04-16T09:39:33.086Z,19.55
2023-04-16T09:44:33.012Z,19.53
2023-04-16T09:49:32.935Z,19.61
2023-04-16T09:54:33.325Z,19.35
2023-04-16T09:59:32.802Z,19.40
2023-04-16T10:04:32.766Z,19.61
2023-04-16T10:09:32.663Z,19.91
2023-04-16T10:14:32.660Z,19.87
2023-04-16T10:19:32.547Z,20.08
2023-04-16T10:24:32.479Z,20.12
2023-04-16T10:29:32.399Z,19.95
2023-04-16T10:34:32.351Z,20.13
2023-04-16T10:39:32.303Z,19.61
2023-04-16T10:44:32.210Z,19.70
2023-04-16T10:49:32.164Z,18.91
2023-04-16T10:54:32.315Z,19.38
2023-04-16T10:59:32.001Z,19.24
2023-04-16T11:04:31.997Z,19.58
2023-04-16T11:09:31.865Z,19.48
2023-04-16T11:14:31.817Z,19.23
2023-04-16T11:19:31.739Z,18.64
2023-04-16T11:24:31.701Z,18.13
2023-04-16T11:29:31.603Z,17.79
2023-04-16T11:34:31.530Z,18.12
2023-04-16T11:39:31.489Z,17.99
2023-04-16T11:44:31.409Z,18.27
2023-04-16T11:49:31.337Z,18.37
2023-04-16T11:54:31.276Z,17.76
2023-04-16T11:59:31.196Z,17.84
2023-04-16T12:04:31.305Z,17.94
2023-04-16T12:09:31.592Z,17.97
2023-04-16T12:14:31.016Z,18.10
2023-04-16T12:19:30.964Z,18.33
2023-04-16T12:24:30.883Z,18.37
2023-04-16T12:29:30.827Z,18.00
2023-04-16T12:34:48.397Z,17.67
2023-04-16T12:39:31.704Z,17.88
2023-04-16T12:44:30.605Z,18.40
2023-04-16T12:49:30.544Z,18.17
2023-04-16T12:54:30.611Z,17.81
2023-04-16T12:59:30.424Z,18.12
2023-04-16T13:04:30.397Z,17.99
2023-04-16T13:09:30.294Z,17.55
2023-04-16T13:14:30.218Z,17.46
2023-04-16T13:19:30.149Z,17.18
2023-04-16T13:24:30.091Z,16.60
2023-04-16T13:29:30.166Z,16.44
2023-04-16T13:34:29.958Z,16.38
2023-04-16T13:39:29.881Z,16.40
2023-04-16T13:44:29.832Z,16.07
2023-04-16T13:49:29.872Z,16.34
2023-04-16T13:54:29.678Z,16.16
2023-04-16T13:59:29.658Z,16.42
2023-04-16T14:04:29.540Z,16.07
2023-04-16T14:09:29.514Z,15.78
2023-04-16T14:14:29.409Z,15.79
2023-04-16T14:19:29.386Z,15.33
2023-04-16T14:24:29.264Z,15.11
2023-04-16T14:29:29.207Z,14.86
2023-04-16T14:34:29.153Z,14.74
2023-04-16T14:39:29.071Z,14.61
2023-04-16T14:44:29.092Z,14.50
2023-04-16T14:49:28.927Z,14.32
2023-04-16T14:54:29.128Z,14.24
2023-04-16T14:59:28.911Z,14.28
2023-04-16T15:04:28.853Z,13.98
2023-04-16T15:09:28.660Z,13.56
2023-04-16T15:14:28.643Z,13.30
2023-04-16T15:19:28.529Z,13.15
2023-04-16T15:24:28.450Z,13.21
2023-04-16T15:29:28.454Z,13.21
2023-04-16T15:34:28.333Z,13.24
2023-04-16T15:39:28.260Z,13.22
2023-04-16T15:44:28.191Z,13.22
2023-04-16T15:49:28.112Z,13.43
2023-04-16T15:54:28.121Z,13.30
2023-04-16T15:59:28.001Z,13.63
2023-04-16T16:04:28.028Z,13.65
2023-04-16T16:09:27.874Z,13.54
2023-04-16T16:14:27.795Z,13.24
2023-04-16T16:19:27.721Z,13.22
2023-04-16T16:24:27.653Z,13.25
2023-04-16T16:29:27.589Z,13.07
2023-04-16T16:34:27.530Z,12.96
2023-04-16T16:39:27.451Z,12.88
2023-04-16T16:44:27.372Z,12.62
2023-04-16T16:49:27.315Z,12.48
2023-04-16T16:54:27.250Z,12.59
2023-04-16T16:59:27.189Z,12.48
2023-04-16T17:04:27.186Z,12.44
2023-04-16T17:09:27.068Z,12.34
2023-04-16T17:14:27.026Z,12.30
2023-04-16T17:19:26.931Z,12.24
2023-04-16T17:24:26.855Z,12.19
2023-04-16T17:29:26.798Z,12.06
2023-04-16T17:34:26.711Z,12.05
2023-04-16T17:39:26.680Z,11.90
2023-04-16T17:44:26.612Z,11.71
2023-04-16T17:49:26.511Z,11.62
2023-04-16T17:54:26.580Z,11.50
2023-04-16T17:59:26.379Z,11.36
2023-04-16T18:04:26.436Z,11.32
2023-04-16T18:09:26.696Z,11.25
2023-04-16T18:14:26.527Z,11.29
2023-04-16T18:23:08.369Z,11.32
2023-04-16T18:27:47.353Z,11.31
2023-04-16T18:37:47.593Z,11.27
2023-04-16T18:42:47.193Z,11.17
2023-04-16T18:47:47.079Z,11.10
2023-04-16T18:52:46.968Z,11.07
2023-04-16T18:57:46.940Z,11.02
2023-04-16T19:02:46.955Z,10.98
2023-04-16T19:07:46.795Z,10.98
2023-04-16T19:12:46.729Z,10.98
2023-04-16T19:17:46.743Z,10.99
2023-04-16T19:22:46.619Z,10.92
2023-04-16T19:27:46.590Z,10.83
2023-04-16T19:32:46.536Z,10.78
2023-04-16T19:37:46.390Z,10.77
2023-04-16T19:42:46.320Z,10.77
2023-04-16T19:47:46.264Z,10.81
2023-04-16T19:52:46.168Z,10.78
2023-04-16T19:57:46.095Z,10.81
2023-04-16T20:02:46.161Z,10.86
2023-04-16T20:07:45.932Z,11.01
2023-04-16T20:12:45.870Z,11.01
2023-04-16T20:17:45.868Z,10.91
2023-04-16T20:22:45.746Z,10.91
2023-04-16T20:27:45.679Z,10.89
2023-04-16T20:32:45.640Z,10.89
2023-04-16T20:37:45.549Z,10.81
2023-04-16T20:42:45.484Z,10.71
2023-04-16T20:47:45.517Z,10.66
2023-04-16T20:52:45.940Z,10.60
2023-04-16T20:57:45.373Z,10.60
2023-04-16T21:02:45.375Z,10.63
2023-04-16T21:07:45.198Z,10.58
2023-04-16T21:12:45.120Z,10.44
2023-04-16T21:17:45.118Z,10.40
2023-04-16T21:22:44.998Z,10.37
2023-04-16T21:27:44.961Z,10.40
2023-04-16T21:32:44.897Z,10.40
2023-04-16T21:37:44.795Z,10.34
2023-04-16T21:42:44.762Z,10.33
2023-04-16T21:47:44.800Z,10.39
2023-04-16T21:52:44.576Z,10.44
2023-04-16T21:57:44.541Z,10.46
2023-04-16T22:02:44.645Z,10.46
2023-04-16T22:07:44.409Z,10.46
2023-04-16T22:12:44.336Z,10.37
2023-04-16T22:17:44.315Z,10.30
2023-04-16T22:22:44.207Z,10.34
2023-04-16T22:27:44.120Z,10.26
2023-04-16T22:32:44.107Z,10.19
2023-04-16T22:37:43.986Z,10.24
2023-04-16T22:42:43.912Z,10.26
2023-04-16T22:47:43.879Z,10.18
2023-04-16T22:52:43.771Z,10.10
2023-04-16T22:57:43.703Z,10.07
2023-04-16T23:02:43.711Z,10.04
2023-04-16T23:07:43.575Z,10.01
2023-04-16T23:12:43.486Z,9.96
2023-04-16T23:17:43.497Z,9.97
2023-04-16T23:22:43.356Z,9.96
2023-04-16T23:27:43.313Z,9.96
2023-04-16T23:32:43.300Z,9.94
2023-04-16T23:37:43.210Z,9.91
2023-04-16T23:42:43.132Z,9.89
2023-04-16T23:47:43.143Z,9.97
2023-04-16T23:52:42.994Z,9.94
2023-04-16T23:57:42.938Z,9.96
